createdAt,value
2022-09-11T00:02:09.637Z,100473
2022-09-11T00:08:04.151Z,100473
2022-09-11T00:13:55.282Z,100472
2022-09-11T00:19:51.584Z,100475
2022-09-11T00:25:46.286Z,100468
2022-09-11T00:31:39.375Z,100467
2022-09-11T00:37:29.973Z,100472
2022-09-11T00:43:22.965Z,100474
2022-09-11T00:49:13.938Z,100474
2022-09-11T00:55:05.298Z,100478
2022-09-11T01:00:56.696Z,100478
2022-09-11T01:06:47.910Z,100483
2022-09-11T01:12:38.713Z,100486
2022-09-11T01:18:29.474Z,100488
2022-09-11T01:24:20.791Z,100491
2022-09-11T01:30:14.980Z,100495
2022-09-11T01:36:06.462Z,100486
2022-09-11T01:41:57.626Z,100492
2022-09-11T01:47:49.060Z,100500
2022-09-11T01:53:39.817Z,100503
2022-09-11T01:59:34.532Z,100515
2022-09-11T02:05:25.699Z,100514
2022-09-11T02:11:17.760Z,100523
2022-09-11T02:17:10.056Z,100515
2022-09-11T02:23:00.978Z,100518
2022-09-11T02:28:51.655Z,100526
2022-09-11T02:34:42.249Z,100529
2022-09-11T02:40:33.707Z,100540
2022-09-11T02:46:24.878Z,100541
2022-09-11T02:52:15.593Z,100540
2022-09-11T02:58:05.571Z,100551
2022-09-11T03:03:55.124Z,100543
2022-09-11T03:09:48.628Z,100542
2022-09-11T03:15:38.810Z,100553
2022-09-11T03:21:29.604Z,100563
2022-09-11T03:27:19.708Z,100559
2022-09-11T03:33:11.138Z,100557
2022-09-11T03:39:01.140Z,100566
2022-09-11T03:44:51.723Z,100566
2022-09-11T03:50:43.752Z,100561
2022-09-11T03:56:34.441Z,100566
2022-09-11T04:02:25.156Z,100566
2022-09-11T04:08:16.267Z,100572
2022-09-11T04:14:08.574Z,100571
2022-09-11T04:19:59.059Z,100576
2022-09-11T04:25:49.249Z,100575
2022-09-11T04:31:43.395Z,100581
2022-09-11T04:37:36.230Z,100584
2022-09-11T08:57:47.113Z,100782
2022-09-11T09:04:06.979Z,100787
2022-09-11T09:10:29.445Z,100788
2022-09-11T09:41:09.290Z,100810
2022-09-11T09:52:59.447Z,100816
2022-09-11T09:58:56.632Z,100813
2022-09-11T10:04:54.571Z,100811
2022-09-11T10:11:06.472Z,100819
2022-09-11T10:23:30.443Z,100806
2022-09-11T10:29:50.560Z,100813
2022-09-11T10:35:50.564Z,100806
2022-09-11T10:41:48.529Z,100801
2022-09-11T10:47:58.060Z,100802
2022-09-11T11:05:42.686Z,100795
2022-09-11T11:23:23.606Z,100778
2022-09-11T11:29:21.102Z,100778
2022-09-11T11:35:33.189Z,100788
2022-09-11T13:35:42.020Z,100713
2022-09-11T13:41:30.764Z,100713
2022-09-11T13:47:21.635Z,100704
2022-09-11T13:53:12.328Z,100699
2022-09-11T14:00:12.508Z,100704
2022-09-11T14:06:04.409Z,100693
2022-09-11T14:11:54.431Z,100694
2022-09-11T14:17:46.116Z,100678
2022-09-11T14:23:37.629Z,100681
2022-09-11T14:29:35.410Z,100684
2022-09-11T14:35:26.366Z,100680
2022-09-11T14:41:18.082Z,100664
2022-09-11T14:47:09.152Z,100675
2022-09-11T14:53:00.621Z,100664
2022-09-11T14:58:50.714Z,100664
2022-09-11T15:04:41.691Z,100658
2022-09-11T15:10:31.240Z,100654
2022-09-11T15:16:21.709Z,100640
2022-09-11T15:22:11.010Z,100640
2022-09-11T15:28:00.245Z,100641
2022-09-11T15:33:50.747Z,100632
2022-09-11T15:39:40.260Z,100631
2022-09-11T15:45:30.612Z,100634
2022-09-11T15:51:20.280Z,100638
2022-09-11T15:57:10.236Z,100638
2022-09-11T16:03:00.867Z,100634
2022-09-11T16:08:51.665Z,100628
2022-09-11T16:14:42.643Z,100631
2022-09-11T16:20:33.478Z,100630
2022-09-11T16:26:26.227Z,100628
2022-09-11T16:32:16.563Z,100614
2022-09-11T16:38:06.559Z,100618
2022-09-11T16:43:57.233Z,100621
2022-09-11T16:50:10.093Z,100623
2022-09-11T16:55:58.427Z,100631
2022-09-11T17:01:47.655Z,100621
2022-09-11T17:07:38.017Z,100625
2022-09-11T17:13:27.091Z,100625
2022-09-11T17:19:18.022Z,100631
2022-09-11T17:25:08.474Z,100623
2022-09-11T17:30:58.572Z,100617
2022-09-11T17:36:48.143Z,100615
2022-09-11T17:42:38.626Z,100620
2022-09-11T17:48:29.255Z,100619
2022-09-11T17:54:21.262Z,100609
2022-09-11T18:00:11.183Z,100611
2022-09-11T18:06:01.781Z,100619
2022-09-11T18:11:52.148Z,100620
2022-09-11T18:17:41.046Z,100627
2022-09-11T18:23:32.783Z,100627
2022-09-11T18:29:23.208Z,100634
2022-09-11T18:35:13.369Z,100643
2022-09-11T18:41:04.229Z,100648
2022-09-11T18:46:54.922Z,100651
2022-09-11T18:52:46.381Z,100643
2022-09-11T18:58:36.363Z,100648
2022-09-11T19:04:26.832Z,100649
2022-09-11T19:10:16.900Z,100646
2022-09-11T19:16:06.709Z,100647
2022-09-11T19:21:57.012Z,100648
2022-09-11T19:27:49.476Z,100647
2022-09-11T19:33:39.305Z,100657
2022-09-11T19:39:30.142Z,100662
2022-09-11T19:45:20.989Z,100664
2022-09-11T19:51:12.273Z,100665
2022-09-11T19:57:03.725Z,100666
2022-09-11T20:02:53.373Z,100677
2022-09-11T20:08:43.359Z,100667
2022-09-11T20:14:34.110Z,100666
2022-09-11T20:20:30.227Z,100672
2022-09-11T20:26:21.132Z,100666
2022-09-11T20:38:50.127Z,100653
2022-09-11T20:45:23.081Z,100651
2022-09-11T20:51:48.948Z,100645
2022-09-11T21:04:10.781Z,100652
2022-09-11T21:10:19.281Z,100642
2022-09-11T21:16:38.399Z,100627
2022-09-11T21:22:32.625Z,100632
2022-09-11T21:34:57.966Z,100627
2022-09-11T21:41:18.746Z,100622
2022-09-11T21:47:38.793Z,100624
2022-09-11T22:00:10.985Z,100622
2022-09-11T22:06:18.597Z,100619
2022-09-11T22:12:14.477Z,100624
2022-09-11T22:18:22.196Z,100627
2022-09-11T22:24:16.415Z,100631
2022-09-11T22:30:33.654Z,100626
2022-09-11T22:42:32.011Z,100613
2022-09-11T22:48:32.139Z,100614
2022-09-11T22:54:26.689Z,100615
2022-09-11T23:00:31.118Z,100611
2022-09-11T23:06:30.869Z,100609
2022-09-11T23:12:29.241Z,100605
2022-09-11T23:18:28.937Z,100608
2022-09-11T23:24:27.680Z,100600
2022-09-11T23:30:29.569Z,100601
2022-09-11T23:36:48.809Z,100605
2022-09-11T23:42:55.452Z,100617
2022-09-11T23:49:14.049Z,100607
2022-09-11T23:55:26.835Z,100605
